Time;durP1;ratioP1;P1;durP2;ratioP2;P2;SDS_P1;SDS_P2;PMS_P1;PMS_P2;Temp;Humidity;BMP_temperature;BMP_pressure;BME280_temperature;BME280_humidity;BME280_pressure;Samples;Min_cycle;Max_cycle;Signal;HPM_P1;HPM_P2
2023/11/04 00:01:51;;;;;;;1.80;0.90;;;;;;;;;;5022833;28;20194;-72
2023/11/04 00:04:17;;;;;;;7.17;1.10;;;;;;;;;;5026278;28;20276;-72
2023/11/04 00:06:42;;;;;;;2.00;0.73;;;;;;;;;;5013851;28;20556;-72
2023/11/04 00:09:08;;;;;;;2.87;0.70;;;;;;;;;;5029776;28;20190;-71
2023/11/04 00:11:33;;;;;;;4.53;0.83;;;;;;;;;;5028243;28;20273;-73
2023/11/04 00:13:58;;;;;;;2.40;0.90;;;;;;;;;;5020937;28;20183;-71
2023/11/04 00:16:24;;;;;;;4.30;0.90;;;;;;;;;;5042116;28;20300;-72
2023/11/04 00:18:49;;;;;;;3.27;1.07;;;;;;;;;;5029541;28;20221;-76
2023/11/04 00:21:15;;;;;;;4.70;0.87;;;;;;;;;;5028751;28;20491;-71
2023/11/04 00:23:40;;;;;;;2.23;0.80;;;;;;;;;;5024637;28;20186;-71
2023/11/04 00:26:06;;;;;;;4.47;0.80;;;;;;;;;;5031899;28;20283;-72
2023/11/04 00:28:31;;;;;;;2.77;0.90;;;;;;;;;;5035820;28;20262;-72
2023/11/04 00:30:57;;;;;;;3.97;1.00;;;;;;;;;;5033860;28;20255;-72
2023/11/04 00:33:22;;;;;;;1.20;0.70;;;;;;;;;;5028018;28;20187;-73
2023/11/04 00:35:49;;;;;;;1.70;0.80;;;;;;;;;;5012816;28;20269;-72
2023/11/04 00:38:14;;;;;;;1.47;0.97;;;;;;;;;;5029903;28;20257;-73
2023/11/04 00:40:41;;;;;;;3.07;1.20;;;;;;;;;;5015765;28;20317;-72
2023/11/04 00:43:07;;;;;;;2.83;0.90;;;;;;;;;;5024144;28;20190;-72
2023/11/04 00:45:32;;;;;;;1.60;0.80;;;;;;;;;;5021799;28;20191;-74
2023/11/04 00:47:59;;;;;;;2.90;0.93;;;;;;;;;;5017961;28;20194;-75
2023/11/04 00:50:26;;;;;;;2.38;0.80;;;;;;;;;;5042451;28;20218;-72
2023/11/04 00:52:52;;;;;;;3.15;0.93;;;;;;;;;;5023691;28;20213;-72
2023/11/04 00:55:17;;;;;;;4.35;0.93;;;;;;;;;;5019125;28;20186;-73
2023/11/04 00:57:43;;;;;;;1.65;0.90;;;;;;;;;;5027386;28;20186;-71
2023/11/04 01:00:11;;;;;;;1.25;0.70;;;;;;;;;;5028414;28;20597;-72
2023/11/04 01:02:37;;;;;;;1.27;0.73;;;;;;;;;;5027914;28;20186;-72
2023/11/04 01:05:02;;;;;;;2.40;0.88;;;;;;;;;;5025401;28;20267;-74
2023/11/04 01:07:28;;;;;;;1.58;0.80;;;;;;;;;;5021140;28;20262;-72
2023/11/04 01:09:53;;;;;;;4.53;0.88;;;;;;;;;;5026270;28;20619;-71
2023/11/04 01:12:19;;;;;;;2.03;0.68;;;;;;;;;;5027296;28;20185;-74
2023/11/04 01:14:44;;;;;;;3.33;0.90;;;;;;;;;;5012464;28;20210;-72
2023/11/04 01:17:10;;;;;;;1.60;1.02;;;;;;;;;;5016894;28;20664;-72
2023/11/04 01:19:35;;;;;;;2.05;0.63;;;;;;;;;;5030281;28;20259;-73
2023/11/04 01:22:01;;;;;;;1.20;0.60;;;;;;;;;;5029010;28;20248;-71
2023/11/04 01:24:28;;;;;;;2.55;0.60;;;;;;;;;;5022832;28;20189;-75
2023/11/04 01:26:53;;;;;;;3.80;0.80;;;;;;;;;;5027315;28;20186;-73
2023/11/04 01:29:19;;;;;;;1.52;0.65;;;;;;;;;;5033886;28;20737;-75
2023/11/04 01:31:45;;;;;;;2.35;1.00;;;;;;;;;;5011589;28;20269;-75
2023/11/04 01:34:11;;;;;;;2.28;0.68;;;;;;;;;;5002328;28;20278;-75
2023/11/04 01:36:36;;;;;;;4.13;0.95;;;;;;;;;;5016905;28;20634;-73
2023/11/04 01:39:02;;;;;;;1.20;0.70;;;;;;;;;;5013346;28;20206;-74
2023/11/04 01:41:28;;;;;;;1.48;0.63;;;;;;;;;;5028382;28;20197;-72
2023/11/04 01:43:53;;;;;;;2.83;0.90;;;;;;;;;;5018005;28;20195;-70
2023/11/04 01:46:21;;;;;;;1.77;0.68;;;;;;;;;;5010884;28;20266;-74
2023/11/04 01:48:47;;;;;;;2.38;0.80;;;;;;;;;;5012778;28;20193;-73
2023/11/04 01:51:14;;;;;;;2.63;0.82;;;;;;;;;;5023937;28;20210;-73
2023/11/04 01:53:44;;;;;;;2.47;0.68;;;;;;;;;;5022696;28;20222;-72
2023/11/04 01:56:12;;;;;;;2.45;0.73;;;;;;;;;;5024035;28;20238;-72
2023/11/04 01:58:39;;;;;;;3.28;0.70;;;;;;;;;;5021268;28;20181;-74
2023/11/04 02:01:04;;;;;;;1.88;0.70;;;;;;;;;;5025126;28;20193;-73
2023/11/04 02:03:30;;;;;;;1.27;0.93;;;;;;;;;;5027007;28;20540;-75
2023/11/04 02:05:56;;;;;;;1.42;0.70;;;;;;;;;;5025674;28;20213;-75
2023/11/04 02:08:21;;;;;;;2.60;0.88;;;;;;;;;;5009222;28;20197;-73
2023/11/04 02:10:47;;;;;;;2.05;0.60;;;;;;;;;;5024356;28;20206;-74
2023/11/04 02:13:13;;;;;;;2.35;0.90;;;;;;;;;;5024084;28;20189;-72
2023/11/04 02:15:38;;;;;;;2.85;0.70;;;;;;;;;;5032288;28;20292;-72
2023/11/04 02:18:03;;;;;;;1.90;0.85;;;;;;;;;;5026426;28;20289;-73
2023/11/04 02:20:33;;;;;;;3.00;0.85;;;;;;;;;;5028537;28;20205;-73
2023/11/04 02:22:58;;;;;;;1.50;0.70;;;;;;;;;;5026012;28;20190;-74
2023/11/04 02:25:23;;;;;;;2.25;0.90;;;;;;;;;;5019731;28;20260;-73
2023/11/04 02:27:49;;;;;;;1.38;0.70;;;;;;;;;;5021117;28;20540;-71
2023/11/04 02:30:14;;;;;;;1.48;0.70;;;;;;;;;;5019595;28;20214;-73
2023/11/04 02:32:40;;;;;;;3.85;0.90;;;;;;;;;;5029969;28;20186;-72
2023/11/04 02:35:06;;;;;;;4.35;1.27;;;;;;;;;;5030361;28;20201;-72
2023/11/04 02:37:31;;;;;;;2.15;0.77;;;;;;;;;;5027517;28;20186;-74
2023/11/04 02:39:57;;;;;;;2.97;0.98;;;;;;;;;;5026002;28;20251;-74
2023/11/04 02:42:22;;;;;;;1.27;0.90;;;;;;;;;;5046605;28;20190;-73
2023/11/04 02:44:47;;;;;;;3.00;1.00;;;;;;;;;;5022290;28;20213;-72
2023/11/04 02:47:13;;;;;;;5.35;1.10;;;;;;;;;;5025218;28;20684;-71
2023/11/04 02:49:38;;;;;;;3.20;1.00;;;;;;;;;;5026331;28;20213;-71
2023/11/04 02:52:04;;;;;;;1.83;0.90;;;;;;;;;;5026354;28;20291;-72
2023/11/04 02:54:29;;;;;;;2.63;0.93;;;;;;;;;;5025826;28;20325;-70
2023/11/04 02:56:56;;;;;;;2.58;0.90;;;;;;;;;;5021334;28;20178;-75
2023/11/04 02:59:21;;;;;;;2.88;1.02;;;;;;;;;;5028630;28;20271;-72
2023/11/04 03:01:46;;;;;;;2.45;1.20;;;;;;;;;;5024584;28;20686;-75
2023/11/04 03:04:12;;;;;;;1.60;0.75;;;;;;;;;;5027785;28;20210;-72
2023/11/04 03:06:38;;;;;;;1.88;0.82;;;;;;;;;;5027816;28;20228;-73
2023/11/04 03:09:04;;;;;;;5.55;1.20;;;;;;;;;;5029884;28;20194;-75
2023/11/04 03:11:29;;;;;;;3.45;0.77;;;;;;;;;;5036658;28;20232;-72
2023/11/04 03:13:55;;;;;;;1.95;0.90;;;;;;;;;;5020572;28;20207;-72
2023/11/04 03:16:20;;;;;;;1.88;0.73;;;;;;;;;;5025631;28;20707;-74
2023/11/04 03:18:46;;;;;;;2.03;0.85;;;;;;;;;;5032054;28;20647;-73
2023/11/04 03:21:12;;;;;;;2.38;0.93;;;;;;;;;;5031064;28;20194;-72
2023/11/04 03:23:37;;;;;;;4.28;0.80;;;;;;;;;;5020796;28;20191;-73
2023/11/04 03:26:03;;;;;;;1.23;0.70;;;;;;;;;;5030884;28;20186;-71
2023/11/04 03:28:28;;;;;;;3.45;0.90;;;;;;;;;;5035172;28;20191;-73
2023/11/04 03:30:53;;;;;;;2.25;0.73;;;;;;;;;;5027769;28;20218;-71
2023/11/04 03:33:19;;;;;;;4.30;0.90;;;;;;;;;;5029400;28;20209;-71
2023/11/04 03:35:45;;;;;;;1.58;0.73;;;;;;;;;;5021313;28;20524;-71
2023/11/04 03:38:10;;;;;;;1.83;1.10;;;;;;;;;;5028810;28;20304;-72
2023/11/04 03:40:36;;;;;;;2.42;0.82;;;;;;;;;;5028376;28;20265;-74
2023/11/04 03:43:01;;;;;;;1.63;0.73;;;;;;;;;;5030273;28;20616;-72
2023/11/04 03:45:26;;;;;;;3.70;0.95;;;;;;;;;;5025829;28;20285;-72
2023/11/04 03:47:52;;;;;;;1.95;0.98;;;;;;;;;;5034151;28;20640;-73
2023/11/04 03:50:17;;;;;;;4.78;1.05;;;;;;;;;;5030887;28;20206;-75
2023/11/04 03:52:43;;;;;;;1.77;1.05;;;;;;;;;;5029687;28;20190;-74
2023/11/04 03:55:09;;;;;;;3.20;0.90;;;;;;;;;;5022179;28;20609;-72
2023/11/04 03:57:34;;;;;;;2.45;1.15;;;;;;;;;;5013745;28;20198;-72
2023/11/04 04:00:00;;;;;;;1.85;1.15;;;;;;;;;;5024950;28;20193;-72
2023/11/04 04:02:25;;;;;;;4.97;1.40;;;;;;;;;;5034310;28;20202;-73
2023/11/04 04:04:51;;;;;;;5.45;1.30;;;;;;;;;;5041585;28;20237;-71
2023/11/04 04:07:16;;;;;;;2.25;1.00;;;;;;;;;;5027591;28;20261;-71
2023/11/04 04:09:41;;;;;;;2.15;0.88;;;;;;;;;;5030218;28;20272;-70
2023/11/04 04:12:07;;;;;;;2.25;0.98;;;;;;;;;;5030163;28;20186;-74
2023/11/04 04:14:33;;;;;;;4.38;0.90;;;;;;;;;;5029498;28;20241;-71
2023/11/04 04:16:58;;;;;;;2.45;1.20;;;;;;;;;;5026201;28;20752;-72
2023/11/04 04:19:23;;;;;;;2.40;1.15;;;;;;;;;;5031283;28;20198;-74
2023/11/04 04:21:49;;;;;;;4.50;1.40;;;;;;;;;;5029057;28;20657;-74
2023/11/04 04:24:14;;;;;;;4.32;1.20;;;;;;;;;;5030161;28;20213;-71
2023/11/04 04:26:40;;;;;;;1.70;1.02;;;;;;;;;;5013789;28;20610;-73
2023/11/04 04:29:07;;;;;;;4.00;1.13;;;;;;;;;;5021761;28;20289;-72
2023/11/04 04:31:33;;;;;;;2.63;1.00;;;;;;;;;;5030147;28;20765;-72
2023/11/04 04:33:58;;;;;;;2.67;1.10;;;;;;;;;;5028849;28;20268;-73
2023/11/04 04:36:23;;;;;;;1.77;1.00;;;;;;;;;;5030039;28;20190;-74
2023/11/04 04:38:50;;;;;;;6.95;1.30;;;;;;;;;;5013943;28;20610;-72
2023/11/04 04:41:16;;;;;;;1.33;0.75;;;;;;;;;;5030150;28;20648;-71
2023/11/04 04:43:41;;;;;;;4.13;1.58;;;;;;;;;;5020958;28;20296;-72
2023/11/04 04:46:07;;;;;;;1.83;1.02;;;;;;;;;;5020528;28;20254;-73
2023/11/04 04:48:33;;;;;;;1.33;1.10;;;;;;;;;;5018341;28;20201;-71
2023/11/04 04:50:58;;;;;;;1.40;0.98;;;;;;;;;;5025725;28;20623;-72
2023/11/04 04:53:24;;;;;;;2.58;1.20;;;;;;;;;;5023373;28;20194;-75
2023/11/04 04:55:50;;;;;;;1.98;1.25;;;;;;;;;;5028037;28;20190;-71
2023/11/04 04:58:17;;;;;;;2.38;1.33;;;;;;;;;;5029015;28;20526;-73
2023/11/04 05:00:42;;;;;;;1.63;1.27;;;;;;;;;;5019257;28;20175;-72
2023/11/04 05:03:08;;;;;;;2.90;1.10;;;;;;;;;;5022584;28;20201;-75
2023/11/04 05:05:34;;;;;;;2.33;1.13;;;;;;;;;;5021437;28;20536;-74
2023/11/04 05:07:59;;;;;;;2.03;1.42;;;;;;;;;;5029322;28;20620;-73
2023/11/04 05:10:25;;;;;;;2.05;1.10;;;;;;;;;;5028608;28;20214;-73
2023/11/04 05:12:50;;;;;;;2.10;1.10;;;;;;;;;;5021185;28;20188;-74
2023/11/04 05:15:15;;;;;;;2.92;1.10;;;;;;;;;;5021592;28;20595;-73
2023/11/04 05:17:41;;;;;;;9.63;1.50;;;;;;;;;;5024132;28;20230;-73
2023/11/04 05:20:08;;;;;;;3.30;1.10;;;;;;;;;;5020638;28;20265;-73
2023/11/04 05:22:33;;;;;;;1.85;1.10;;;;;;;;;;5028122;28;20232;-75
2023/11/04 05:24:59;;;;;;;3.15;1.27;;;;;;;;;;5018033;28;20190;-72
2023/11/04 05:27:25;;;;;;;3.85;1.67;;;;;;;;;;5028449;28;20264;-73
2023/11/04 05:29:50;;;;;;;3.63;1.40;;;;;;;;;;5015635;28;20222;-71
2023/11/04 05:32:17;;;;;;;4.53;1.30;;;;;;;;;;5031954;28;20217;-73
2023/11/04 05:34:44;;;;;;;3.33;1.33;;;;;;;;;;5022371;28;20208;-70
2023/11/04 05:37:10;;;;;;;1.73;1.17;;;;;;;;;;5012527;28;20205;-72
2023/11/04 05:39:35;;;;;;;2.33;1.20;;;;;;;;;;5017407;28;20178;-72
2023/11/04 05:42:02;;;;;;;1.20;1.10;;;;;;;;;;5026597;28;20182;-74
2023/11/04 05:44:27;;;;;;;2.83;1.35;;;;;;;;;;5026756;28;20638;-73
2023/11/04 05:46:53;;;;;;;1.75;1.17;;;;;;;;;;5035179;28;20260;-73
2023/11/04 05:49:18;;;;;;;3.15;1.33;;;;;;;;;;5012675;28;20196;-73
2023/11/04 05:51:44;;;;;;;2.63;1.80;;;;;;;;;;5041422;28;20298;-76
2023/11/04 05:54:11;;;;;;;2.40;1.40;;;;;;;;;;5028839;28;20225;-72
2023/11/04 05:56:37;;;;;;;2.67;1.40;;;;;;;;;;5037549;28;20194;-72
2023/11/04 05:59:02;;;;;;;4.00;1.50;;;;;;;;;;5028164;28;20525;-74
2023/11/04 06:01:28;;;;;;;1.83;1.67;;;;;;;;;;5020295;28;20605;-71
2023/11/04 06:03:53;;;;;;;2.65;1.35;;;;;;;;;;5021512;28;20193;-73
2023/11/04 06:06:20;;;;;;;5.22;1.85;;;;;;;;;;5027049;28;20178;-71
2023/11/04 06:08:45;;;;;;;3.72;1.70;;;;;;;;;;5025633;28;20235;-71
2023/11/04 06:11:11;;;;;;;3.08;2.03;;;;;;;;;;5016410;28;20210;-71
2023/11/04 06:13:36;;;;;;;2.97;2.00;;;;;;;;;;5027142;28;20197;-75
2023/11/04 06:16:02;;;;;;;2.45;1.80;;;;;;;;;;5022178;28;20383;-76
2023/11/04 06:18:28;;;;;;;2.28;2.05;;;;;;;;;;5023605;28;20577;-73
2023/11/04 06:20:53;;;;;;;4.53;2.63;;;;;;;;;;5013748;28;20194;-71
2023/11/04 06:23:19;;;;;;;5.15;2.03;;;;;;;;;;5021169;28;20244;-75
2023/11/04 06:25:44;;;;;;;4.68;2.20;;;;;;;;;;5019336;28;20650;-70
2023/11/04 06:28:10;;;;;;;3.35;2.95;;;;;;;;;;5021515;28;20198;-71
2023/11/04 06:30:35;;;;;;;3.28;2.13;;;;;;;;;;5025455;28;20198;-72
2023/11/04 06:33:02;;;;;;;4.18;2.50;;;;;;;;;;4332098;28;10000722;-74
2023/11/04 06:35:28;;;;;;;4.65;2.45;;;;;;;;;;5011131;28;20194;-71
2023/11/04 06:37:54;;;;;;;3.05;2.63;;;;;;;;;;5015115;28;20606;-72
2023/11/04 06:40:20;;;;;;;6.78;2.65;;;;;;;;;;5015109;28;20199;-70
2023/11/04 06:42:45;;;;;;;3.45;2.60;;;;;;;;;;5013921;28;20251;-72
2023/11/04 06:45:11;;;;;;;8.02;2.33;;;;;;;;;;5018594;28;20733;-70
2023/11/04 06:47:36;;;;;;;4.82;2.40;;;;;;;;;;5019825;28;20186;-71
2023/11/04 06:50:05;;;;;;;3.97;2.30;;;;;;;;;;5019410;28;20222;-70
2023/11/04 06:52:31;;;;;;;4.20;2.92;;;;;;;;;;5018361;28;20191;-71
2023/11/04 06:54:57;;;;;;;3.97;2.67;;;;;;;;;;5024183;28;20207;-71
2023/11/04 06:57:22;;;;;;;6.15;2.67;;;;;;;;;;5016002;28;20253;-70
2023/11/04 06:59:47;;;;;;;5.05;2.28;;;;;;;;;;5021805;28;20525;-70
2023/11/04 07:02:13;;;;;;;2.83;2.40;;;;;;;;;;5023617;28;20621;-73
2023/11/04 07:04:38;;;;;;;2.88;2.30;;;;;;;;;;5020416;28;20190;-73
2023/11/04 07:07:04;;;;;;;3.10;2.38;;;;;;;;;;5029110;28;20202;-71
2023/11/04 07:09:34;;;;;;;3.00;1.95;;;;;;;;;;5043509;28;20457;-72
2023/11/04 07:11:59;;;;;;;5.88;2.15;;;;;;;;;;5025919;28;20186;-73
2023/11/04 07:14:25;;;;;;;3.80;1.70;;;;;;;;;;5031132;28;20271;-71
2023/11/04 07:16:50;;;;;;;5.90;2.13;;;;;;;;;;5028306;28;20280;-71
2023/11/04 07:19:16;;;;;;;3.53;2.05;;;;;;;;;;5021287;28;20204;-73
2023/11/04 07:21:42;;;;;;;3.58;1.73;;;;;;;;;;5020096;28;20253;-71
2023/11/04 07:24:09;;;;;;;5.15;1.98;;;;;;;;;;5019389;28;20207;-71
2023/11/04 07:26:34;;;;;;;4.43;1.70;;;;;;;;;;5024295;28;20580;-71
2023/11/04 07:29:00;;;;;;;4.43;1.73;;;;;;;;;;5029481;28;20289;-74
2023/11/04 07:31:26;;;;;;;3.55;1.73;;;;;;;;;;5016865;28;20206;-73
2023/11/04 07:33:52;;;;;;;3.50;1.60;;;;;;;;;;5027023;28;20221;-71
2023/11/04 07:36:24;;;;;;;2.13;1.65;;;;;;;;;;5031800;28;20594;-70
2023/11/04 07:38:51;;;;;;;4.60;1.63;;;;;;;;;;5024691;28;20273;-70
2023/11/04 07:41:16;;;;;;;2.72;1.58;;;;;;;;;;5021476;28;20262;-71
2023/11/04 07:43:41;;;;;;;2.50;1.10;;;;;;;;;;5020726;28;20194;-70
2023/11/04 07:46:07;;;;;;;3.97;1.20;;;;;;;;;;5037002;28;20225;-71
2023/11/04 07:48:32;;;;;;;2.45;1.10;;;;;;;;;;5023461;28;20194;-71
2023/11/04 07:50:57;;;;;;;4.38;1.02;;;;;;;;;;5021093;28;20210;-72
2023/11/04 07:53:23;;;;;;;3.90;1.05;;;;;;;;;;5029743;28;20223;-71
2023/11/04 07:55:48;;;;;;;2.33;1.00;;;;;;;;;;5031387;28;20780;-70
2023/11/04 07:58:14;;;;;;;5.90;1.50;;;;;;;;;;5029647;28;20255;-72
2023/11/04 08:00:39;;;;;;;1.88;1.10;;;;;;;;;;5025986;28;20219;-70
2023/11/04 08:03:05;;;;;;;3.50;0.88;;;;;;;;;;5025064;28;20348;-71
2023/11/04 08:05:30;;;;;;;3.63;0.90;;;;;;;;;;5030605;28;20190;-72
2023/11/04 08:07:56;;;;;;;4.13;1.30;;;;;;;;;;5028078;28;20259;-71
2023/11/04 08:10:21;;;;;;;2.70;0.75;;;;;;;;;;5027028;28;20212;-71
2023/11/04 08:12:47;;;;;;;2.35;0.90;;;;;;;;;;5027150;28;20558;-72
2023/11/04 08:15:12;;;;;;;3.13;0.90;;;;;;;;;;5028179;28;20537;-72
2023/11/04 08:17:39;;;;;;;3.30;0.80;;;;;;;;;;5034496;28;20246;-72
2023/11/04 08:20:08;;;;;;;1.55;0.82;;;;;;;;;;5028662;28;20693;-71
2023/11/04 08:22:39;;;;;;;2.60;0.75;;;;;;;;;;5022678;28;20248;-74
2023/11/04 08:25:06;;;;;;;2.80;0.90;;;;;;;;;;5029067;28;20536;-71
2023/11/04 08:27:32;;;;;;;1.77;0.70;;;;;;;;;;5013811;28;20692;-74
2023/11/04 08:29:57;;;;;;;2.45;0.80;;;;;;;;;;5029502;28;20202;-71
2023/11/04 08:32:22;;;;;;;1.63;0.85;;;;;;;;;;5020233;28;20197;-73
2023/11/04 08:34:48;;;;;;;3.10;0.88;;;;;;;;;;5025329;28;20186;-72
2023/11/04 08:37:13;;;;;;;2.83;0.68;;;;;;;;;;5030759;28;20218;-75
2023/11/04 08:39:39;;;;;;;2.95;0.88;;;;;;;;;;5012151;28;20179;-73
2023/11/04 08:42:05;;;;;;;3.35;0.75;;;;;;;;;;5025555;28;20193;-72
2023/11/04 08:44:30;;;;;;;1.67;0.77;;;;;;;;;;5030155;28;20273;-72
2023/11/04 08:46:56;;;;;;;0.77;0.70;;;;;;;;;;5029876;28;20285;-72
2023/11/04 08:49:21;;;;;;;1.80;0.70;;;;;;;;;;5029858;28;20201;-75
2023/11/04 08:51:47;;;;;;;4.22;0.80;;;;;;;;;;5024846;28;20712;-74
2023/11/04 08:54:14;;;;;;;4.55;0.73;;;;;;;;;;5029204;28;20221;-69
2023/11/04 08:56:39;;;;;;;2.25;0.73;;;;;;;;;;5042358;28;20186;-69
2023/11/04 08:59:05;;;;;;;2.25;0.60;;;;;;;;;;5020226;28;20203;-73
2023/11/04 09:01:30;;;;;;;1.83;0.60;;;;;;;;;;5027919;28;20190;-71
2023/11/04 09:03:55;;;;;;;1.58;0.50;;;;;;;;;;5028830;28;20413;-73
2023/11/04 09:06:24;;;;;;;0.68;0.40;;;;;;;;;;5028460;28;20373;-74
2023/11/04 09:08:49;;;;;;;1.10;0.40;;;;;;;;;;5030617;28;20313;-71
2023/11/04 09:11:16;;;;;;;3.92;0.95;;;;;;;;;;5029576;28;20301;-70
2023/11/04 09:13:42;;;;;;;2.35;0.80;;;;;;;;;;5029223;28;20605;-71
2023/11/04 09:16:09;;;;;;;1.23;0.40;;;;;;;;;;5026855;28;20444;-72
2023/11/04 09:18:37;;;;;;;1.95;0.60;;;;;;;;;;5012288;28;20669;-71
2023/11/04 09:21:03;;;;;;;1.00;0.40;;;;;;;;;;5028742;28;20641;-75
2023/11/04 09:23:29;;;;;;;2.50;0.70;;;;;;;;;;5024811;28;20201;-72
2023/11/04 09:25:54;;;;;;;2.33;0.63;;;;;;;;;;5030051;28;20194;-72
2023/11/04 09:28:20;;;;;;;3.25;0.75;;;;;;;;;;5015631;28;20266;-71
2023/11/04 09:30:46;;;;;;;3.83;0.70;;;;;;;;;;5034475;28;20359;-74
2023/11/04 09:33:12;;;;;;;1.98;0.70;;;;;;;;;;5010246;28;20278;-72
2023/11/04 09:35:37;;;;;;;2.03;0.82;;;;;;;;;;5030183;28;20617;-71
2023/11/04 09:38:04;;;;;;;2.53;0.85;;;;;;;;;;5015477;28;20195;-72
2023/11/04 09:40:30;;;;;;;1.95;0.73;;;;;;;;;;5027750;28;20213;-71
2023/11/04 09:42:56;;;;;;;1.48;0.68;;;;;;;;;;5024017;28;20224;-71
2023/11/04 09:45:23;;;;;;;4.72;1.05;;;;;;;;;;5025574;28;20197;-74
2023/11/04 09:47:49;;;;;;;3.42;0.80;;;;;;;;;;5037481;28;20198;-73
2023/11/04 09:50:14;;;;;;;2.45;0.98;;;;;;;;;;5027368;28;20229;-71
2023/11/04 09:52:45;;;;;;;3.53;0.80;;;;;;;;;;5018033;28;20186;-73
2023/11/04 09:55:14;;;;;;;2.15;0.60;;;;;;;;;;4340616;28;10000682;-72
2023/11/04 09:57:41;;;;;;;3.17;0.80;;;;;;;;;;5020898;28;20204;-73
2023/11/04 10:00:09;;;;;;;1.83;0.70;;;;;;;;;;5024132;28;20178;-71
2023/11/04 10:02:35;;;;;;;2.58;1.10;;;;;;;;;;5025791;28;20186;-73
2023/11/04 10:05:00;;;;;;;1.13;0.70;;;;;;;;;;5019507;28;20265;-72
2023/11/04 10:07:26;;;;;;;0.98;0.60;;;;;;;;;;5025444;28;20174;-71
2023/11/04 10:09:53;;;;;;;1.63;0.55;;;;;;;;;;5014204;28;20232;-71
2023/11/04 10:12:20;;;;;;;3.38;0.88;;;;;;;;;;5016177;28;20195;-73
2023/11/04 10:14:46;;;;;;;2.25;0.80;;;;;;;;;;5024701;28;20216;-72
2023/11/04 10:17:12;;;;;;;2.85;0.70;;;;;;;;;;5018260;28;20238;-73
2023/11/04 10:19:38;;;;;;;2.42;0.60;;;;;;;;;;5024366;28;20190;-71
2023/11/04 10:22:03;;;;;;;2.20;0.47;;;;;;;;;;5017902;28;20217;-72
2023/11/04 10:24:29;;;;;;;2.55;0.70;;;;;;;;;;5025053;28;20233;-71
2023/11/04 10:26:55;;;;;;;1.60;0.60;;;;;;;;;;5021417;28;20634;-74
2023/11/04 10:29:21;;;;;;;2.88;0.50;;;;;;;;;;5032227;28;20193;-71
2023/11/04 10:31:47;;;;;;;0.88;0.57;;;;;;;;;;5028360;28;20221;-72
2023/11/04 10:34:15;;;;;;;0.88;0.40;;;;;;;;;;5017209;28;20285;-72
2023/11/04 10:36:44;;;;;;;1.17;0.40;;;;;;;;;;5026411;28;20209;-72
2023/11/04 10:39:12;;;;;;;1.42;0.50;;;;;;;;;;5027242;28;20726;-73
2023/11/04 10:41:43;;;;;;;0.30;0.30;;;;;;;;;;5023198;28;20191;-72
2023/11/04 10:44:15;;;;;;;0.77;0.50;;;;;;;;;;5021511;28;20194;-76
2023/11/04 10:47:21;;;;;;;0.95;0.45;;;;;;;;;;5035355;28;20276;-70
2023/11/04 10:49:52;;;;;;;2.05;0.52;;;;;;;;;;5016479;28;20281;-70
2023/11/04 10:52:19;;;;;;;1.48;0.50;;;;;;;;;;5018114;28;20194;-71
2023/11/04 10:54:54;;;;;;;1.15;0.30;;;;;;;;;;5027266;28;20243;-71
2023/11/04 10:57:38;;;;;;;3.03;0.85;;;;;;;;;;5029783;28;20186;-71
2023/11/04 11:00:13;;;;;;;4.00;0.40;;;;;;;;;;5029212;28;20255;-73
2023/11/04 11:02:44;;;;;;;1.05;0.50;;;;;;;;;;5024481;28;20347;-72
2023/11/04 11:05:13;;;;;;;1.55;0.30;;;;;;;;;;5020563;28;20194;-77
2023/11/04 11:07:43;;;;;;;0.70;0.40;;;;;;;;;;5029127;28;20308;-73
2023/11/04 11:10:09;;;;;;;1.27;0.50;;;;;;;;;;5025342;28;20194;-71
2023/11/04 11:12:43;;;;;;;1.50;0.50;;;;;;;;;;5021933;28;20208;-72
2023/11/04 11:15:09;;;;;;;3.35;0.32;;;;;;;;;;5021708;28;20241;-72
2023/11/04 11:17:34;;;;;;;0.25;0.25;;;;;;;;;;5025431;28;20780;-73
2023/11/04 11:20:04;;;;;;;0.93;0.22;;;;;;;;;;5039596;28;20533;-74
2023/11/04 11:22:30;;;;;;;1.85;0.35;;;;;;;;;;5027408;28;20283;-71
2023/11/04 11:24:57;;;;;;;1.83;0.40;;;;;;;;;;5026146;28;21041;-71
2023/11/04 11:27:24;;;;;;;1.52;0.30;;;;;;;;;;5028048;28;20205;-75
2023/11/04 11:29:50;;;;;;;0.95;0.40;;;;;;;;;;5028528;28;20206;-74
2023/11/04 11:32:18;;;;;;;4.53;1.38;;;;;;;;;;5025014;28;20214;-72
2023/11/04 11:34:51;;;;;;;0.75;0.45;;;;;;;;;;5022103;28;20303;-72
2023/11/04 11:37:21;;;;;;;11.00;2.83;;;;;;;;;;5021591;28;20194;-70
2023/11/04 11:39:47;;;;;;;1.40;0.50;;;;;;;;;;5020115;28;21516;-71
2023/11/04 11:42:13;;;;;;;3.78;0.68;;;;;;;;;;5022715;28;20309;-71
2023/11/04 11:44:43;;;;;;;1.90;0.50;;;;;;;;;;5040484;28;20261;-72
2023/11/04 11:47:09;;;;;;;1.10;0.35;;;;;;;;;;5044248;28;20186;-74
2023/11/04 11:49:35;;;;;;;1.05;0.38;;;;;;;;;;5017541;28;20182;-71
2023/11/04 11:52:02;;;;;;;1.80;0.50;;;;;;;;;;5025935;28;20197;-72
2023/11/04 11:54:29;;;;;;;1.80;0.40;;;;;;;;;;5024035;28;20186;-71
2023/11/04 11:56:55;;;;;;;1.83;0.50;;;;;;;;;;5028534;28;20202;-73
2023/11/04 11:59:20;;;;;;;1.23;0.40;;;;;;;;;;5020561;28;20264;-70
2023/11/04 12:01:46;;;;;;;4.40;0.60;;;;;;;;;;5027982;28;20240;-70
2023/11/04 12:04:12;;;;;;;0.75;0.40;;;;;;;;;;5029186;28;20269;-75
2023/11/04 12:06:39;;;;;;;1.63;0.30;;;;;;;;;;5028436;28;20273;-72
2023/11/04 12:09:06;;;;;;;2.40;0.60;;;;;;;;;;5022797;28;20663;-71
2023/11/04 12:11:32;;;;;;;1.15;0.50;;;;;;;;;;5029153;28;20205;-71
2023/11/04 12:13:59;;;;;;;2.17;0.30;;;;;;;;;;5022798;28;20190;-71
2023/11/04 12:16:25;;;;;;;2.10;0.80;;;;;;;;;;5021206;28;22152;-71
2023/11/04 12:18:51;;;;;;;1.27;0.40;;;;;;;;;;5022531;28;20203;-72
2023/11/04 12:21:17;;;;;;;2.80;0.57;;;;;;;;;;5020206;28;20187;-71
2023/11/04 12:23:45;;;;;;;2.13;0.50;;;;;;;;;;5026671;28;20248;-70
2023/11/04 12:26:10;;;;;;;1.30;0.30;;;;;;;;;;5020985;28;20253;-70
2023/11/04 12:28:38;;;;;;;3.03;0.40;;;;;;;;;;5010719;28;20198;-71
2023/11/04 12:31:04;;;;;;;2.03;0.40;;;;;;;;;;5032699;28;20205;-71
2023/11/04 12:33:30;;;;;;;2.75;0.45;;;;;;;;;;5019015;28;20436;-70
2023/11/04 12:36:07;;;;;;;7.40;0.85;;;;;;;;;;5026302;28;20202;-70
2023/11/04 12:38:33;;;;;;;2.10;0.50;;;;;;;;;;5041331;28;20190;-71
2023/11/04 12:40:59;;;;;;;2.40;0.40;;;;;;;;;;5029774;28;20300;-70
2023/11/04 12:43:25;;;;;;;2.45;0.60;;;;;;;;;;5032197;28;20197;-70
2023/11/04 12:45:56;;;;;;;2.13;0.63;;;;;;;;;;5015441;28;20183;-71
2023/11/04 12:48:22;;;;;;;1.95;0.45;;;;;;;;;;5018797;28;20621;-71
2023/11/04 12:50:48;;;;;;;1.88;0.52;;;;;;;;;;5025127;28;20221;-71
2023/11/04 12:53:13;;;;;;;1.55;0.63;;;;;;;;;;5025969;28;20681;-72
2023/11/04 12:55:39;;;;;;;2.72;0.52;;;;;;;;;;5029557;28;20505;-69
2023/11/04 12:58:05;;;;;;;1.90;0.50;;;;;;;;;;5026040;28;20273;-73
2023/11/04 13:00:31;;;;;;;2.72;0.70;;;;;;;;;;5028504;28;20174;-71
2023/11/04 13:02:57;;;;;;;2.72;0.80;;;;;;;;;;5022652;28;20209;-73
2023/11/04 13:05:23;;;;;;;2.75;0.45;;;;;;;;;;5035188;28;20504;-72
2023/11/04 13:07:49;;;;;;;2.80;0.70;;;;;;;;;;5038641;28;20197;-71
2023/11/04 13:10:15;;;;;;;3.17;0.60;;;;;;;;;;5039004;28;20202;-74
2023/11/04 13:12:40;;;;;;;3.55;0.60;;;;;;;;;;5024034;28;20196;-70
2023/11/04 13:15:06;;;;;;;5.57;1.10;;;;;;;;;;5029570;28;20728;-70
2023/11/04 13:17:31;;;;;;;3.05;0.80;;;;;;;;;;5024651;28;20249;-69
2023/11/04 13:19:57;;;;;;;2.53;0.73;;;;;;;;;;5023530;28;20198;-74
2023/11/04 13:22:22;;;;;;;4.15;0.63;;;;;;;;;;5032802;28;20208;-71
2023/11/04 13:24:47;;;;;;;2.17;0.60;;;;;;;;;;5019353;28;20272;-71
2023/11/04 13:27:13;;;;;;;4.30;0.68;;;;;;;;;;5019478;28;20319;-69
2023/11/04 13:29:39;;;;;;;2.28;0.88;;;;;;;;;;5024347;28;20194;-69
2023/11/04 13:32:04;;;;;;;2.83;0.80;;;;;;;;;;5024423;28;20623;-69
2023/11/04 13:34:30;;;;;;;4.22;0.85;;;;;;;;;;5018772;28;20196;-69
2023/11/04 13:36:55;;;;;;;3.20;0.95;;;;;;;;;;5024401;28;20209;-70
2023/11/04 13:39:27;;;;;;;3.40;0.90;;;;;;;;;;5025842;28;20221;-69
2023/11/04 13:41:52;;;;;;;3.97;1.02;;;;;;;;;;5023502;28;20243;-69
2023/11/04 13:44:18;;;;;;;4.45;1.25;;;;;;;;;;5013185;28;20198;-68
2023/11/04 13:46:45;;;;;;;2.00;1.05;;;;;;;;;;5019431;28;20248;-69
2023/11/04 13:49:11;;;;;;;5.40;1.75;;;;;;;;;;5022526;28;20217;-69
2023/11/04 13:51:39;;;;;;;4.60;1.30;;;;;;;;;;5019438;28;20635;-69
2023/11/04 13:54:05;;;;;;;4.50;1.42;;;;;;;;;;5017389;28;20219;-69
2023/11/04 13:56:31;;;;;;;3.53;1.10;;;;;;;;;;5032115;28;20243;-69
2023/11/04 13:58:56;;;;;;;2.85;0.90;;;;;;;;;;5021872;28;20198;-69
2023/11/04 14:01:24;;;;;;;4.38;1.08;;;;;;;;;;5028736;28;20186;-69
2023/11/04 14:03:50;;;;;;;4.03;0.77;;;;;;;;;;5017167;28;20200;-71
2023/11/04 14:06:16;;;;;;;2.42;0.90;;;;;;;;;;5029269;28;20194;-72
2023/11/04 14:08:43;;;;;;;5.95;1.20;;;;;;;;;;5027738;28;20192;-72
2023/11/04 14:11:10;;;;;;;3.53;0.90;;;;;;;;;;5026002;28;20310;-72
2023/11/04 14:13:38;;;;;;;3.42;0.75;;;;;;;;;;5018217;28;20190;-71
2023/11/04 14:16:04;;;;;;;4.22;1.27;;;;;;;;;;5018299;28;20238;-73
2023/11/04 14:18:32;;;;;;;3.53;1.10;;;;;;;;;;5020742;28;20615;-73
2023/11/04 14:20:57;;;;;;;3.40;1.20;;;;;;;;;;5004557;28;20568;-73
2023/11/04 14:23:22;;;;;;;2.45;0.90;;;;;;;;;;5003736;28;20190;-73
2023/11/04 14:25:48;;;;;;;3.42;0.85;;;;;;;;;;5021931;28;20208;-73
2023/11/04 14:28:14;;;;;;;3.28;1.10;;;;;;;;;;5019741;28;20238;-73
2023/11/04 14:30:40;;;;;;;1.77;0.90;;;;;;;;;;5038110;28;20218;-73
2023/11/04 14:33:07;;;;;;;2.25;1.00;;;;;;;;;;5023497;28;20200;-73
2023/11/04 14:35:32;;;;;;;4.22;1.00;;;;;;;;;;5037610;28;20190;-73
2023/11/04 14:37:58;;;;;;;4.75;1.05;;;;;;;;;;5021924;28;20272;-73